createdAt,value
2019-05-11T04:31:35.388Z,998.96
2019-05-11T05:46:42.586Z,999.35
2019-05-11T06:32:42.049Z,999.43
2019-05-11T06:41:41.953Z,999.54
2019-05-11T08:23:09.173Z,1000.43
2019-05-11T08:44:09.075Z,1000.66
2019-05-11T09:31:34.407Z,1001.44
2019-05-11T09:32:34.395Z,1001.42
2019-05-11T10:20:18.430Z,1002.25
2019-05-11T11:21:40.209Z,1003.02
2019-05-11T12:40:23.425Z,1003.70
2019-05-11T13:00:23.196Z,1003.98
2019-05-11T13:17:34.937Z,1004.20
2019-05-11T13:23:45.416Z,1004.31
2019-05-11T13:25:45.408Z,1004.38
2019-05-11T13:26:45.385Z,1004.37
2019-05-11T13:27:45.369Z,1004.41
2019-05-11T13:37:47.919Z,1004.51
2019-05-11T13:38:45.489Z,1004.53
2019-05-11T13:39:45.230Z,1004.54
2019-05-11T13:40:45.226Z,1004.55
2019-05-11T13:42:45.201Z,1004.56
2019-05-11T13:44:45.180Z,1004.58
2019-05-11T13:47:52.617Z,1004.65
2019-05-11T13:49:08.576Z,1004.70
2019-05-11T13:50:07.869Z,1004.74
2019-05-11T13:51:08.787Z,1004.73
2019-05-11T13:52:08.590Z,1004.77
2019-05-11T13:59:07.456Z,1004.83
2019-05-11T14:02:10.666Z,1004.90
2019-05-11T14:04:08.496Z,1004.92
2019-05-11T14:06:08.742Z,1005.02
2019-05-11T14:07:08.085Z,1005.03
2019-05-11T14:08:08.119Z,1005.09
2019-05-11T14:09:07.876Z,1005.11
2019-05-11T14:10:08.039Z,1005.15
2019-05-11T14:11:08.595Z,1005.12
2019-05-11T14:12:07.837Z,1005.15
2019-05-11T14:14:07.772Z,1005.24
2019-05-11T14:15:08.550Z,1005.21
2019-05-11T14:16:07.990Z,1005.25
2019-05-11T14:17:08.317Z,1005.25
2019-05-11T14:18:09.417Z,1005.28
2019-05-11T14:19:08.695Z,1005.35
2019-05-11T14:20:08.847Z,1005.30
2019-05-11T14:21:08.022Z,1005.40
2019-05-11T14:22:08.632Z,1005.40
2019-05-11T14:23:07.862Z,1005.45
2019-05-11T14:24:07.760Z,1005.44
2019-05-11T14:26:08.431Z,1005.44
2019-05-11T14:27:08.522Z,1005.46
2019-05-11T14:28:08.870Z,1005.53
2019-05-11T14:29:08.517Z,1005.57
2019-05-11T14:30:08.574Z,1005.59
2019-05-11T14:31:08.248Z,1005.60
2019-05-11T14:32:08.548Z,1005.64
2019-05-11T14:35:11.894Z,1005.74
2019-05-11T14:36:08.589Z,1005.69
2019-05-11T14:37:08.847Z,1005.75
2019-05-11T14:38:08.015Z,1005.74
2019-05-11T14:39:08.413Z,1005.79
2019-05-11T14:40:08.767Z,1005.83
2019-05-11T14:41:07.767Z,1005.93
2019-05-11T14:42:07.723Z,1005.96
2019-05-11T14:43:08.427Z,1005.96
2019-05-11T14:44:08.791Z,1006.01
2019-05-11T14:45:08.438Z,1006.04
2019-05-11T14:46:08.613Z,1006.02
2019-05-11T14:47:08.493Z,1006.07
2019-05-11T14:48:22.546Z,1006.09
2019-05-11T14:49:28.546Z,1006.21
2019-05-11T14:50:28.536Z,1006.20
2019-05-11T14:51:28.523Z,1006.24
2019-05-11T14:52:28.526Z,1006.29
2019-05-11T14:53:28.497Z,1006.33
2019-05-11T14:54:28.992Z,1006.30
2019-05-11T14:55:29.095Z,1006.31
2019-05-11T14:56:28.466Z,1006.34
2019-05-11T14:57:28.458Z,1006.37
2019-05-11T14:58:28.440Z,1006.37
2019-05-11T14:59:28.749Z,1006.38
2019-05-11T15:14:55.362Z,1006.63
2019-05-11T15:15:55.356Z,1006.64
2019-05-11T15:16:57.525Z,1006.72
2019-05-11T15:17:57.932Z,1006.75
2019-05-11T15:18:55.327Z,1006.73
2019-05-11T15:19:55.316Z,1006.79
2019-05-11T15:20:55.298Z,1006.77
2019-05-11T15:21:55.285Z,1006.78
2019-05-11T15:22:55.279Z,1006.77
2019-05-11T15:23:55.269Z,1006.82
2019-05-11T15:24:55.259Z,1006.82
2019-05-11T15:25:55.245Z,1006.77
2019-05-11T15:26:57.478Z,1006.80
2019-05-11T15:27:55.209Z,1006.80
2019-05-11T15:28:55.205Z,1006.85
2019-05-11T15:29:55.193Z,1006.89
2019-05-11T15:30:55.181Z,1006.90
2019-05-11T15:31:55.190Z,1006.92
2019-05-11T15:32:55.162Z,1006.94
2019-05-11T15:33:57.589Z,1006.92
2019-05-11T15:34:55.140Z,1006.97
2019-05-11T15:35:55.118Z,1007.00
2019-05-11T15:36:55.105Z,1006.96
2019-05-11T15:37:55.103Z,1007.01
2019-05-11T15:38:55.088Z,1007.04
2019-05-11T15:39:55.084Z,1007.05
2019-05-11T15:40:55.067Z,1007.08
2019-05-11T15:42:07.259Z,1007.05
2019-05-11T15:43:17.968Z,1007.10
2019-05-11T15:44:18.238Z,1007.13
2019-05-11T15:45:18.685Z,1007.09
2019-05-11T15:46:19.437Z,1007.13
2019-05-11T15:47:17.221Z,1007.18
2019-05-11T15:48:18.633Z,1007.17
2019-05-11T15:49:17.952Z,1007.15
2019-05-11T15:50:19.041Z,1007.17
2019-05-11T15:51:18.794Z,1007.18
2019-05-11T15:52:18.819Z,1007.19
2019-05-11T15:53:17.845Z,1007.22
2019-05-11T15:54:18.552Z,1007.30
2019-05-11T15:55:18.802Z,1007.34
2019-05-11T15:56:19.057Z,1007.35
2019-05-11T15:57:17.935Z,1007.41
2019-05-11T15:58:21.479Z,1007.40
2019-05-11T15:59:17.084Z,1007.45
2019-05-11T16:00:17.111Z,1007.45
2019-05-11T16:01:18.637Z,1007.44
2019-05-11T16:02:17.999Z,1007.45
2019-05-11T16:03:18.677Z,1007.41
2019-05-11T16:04:18.109Z,1007.49
2019-05-11T16:05:18.235Z,1007.47
2019-05-11T16:06:18.554Z,1007.52
2019-05-11T16:07:18.737Z,1007.52
2019-05-11T16:08:18.794Z,1007.53
2019-05-11T16:09:18.406Z,1007.56
2019-05-11T16:10:18.714Z,1007.56
2019-05-11T16:11:18.095Z,1007.65
2019-05-11T16:12:18.199Z,1007.65
2019-05-11T16:13:18.090Z,1007.66
2019-05-11T16:14:16.914Z,1007.67
2019-05-11T16:15:19.191Z,1007.70
2019-05-11T16:16:16.896Z,1007.72
2019-05-11T16:17:16.926Z,1007.72
2019-05-11T16:18:18.886Z,1007.73
2019-05-11T16:19:19.135Z,1007.74
2019-05-11T16:20:18.067Z,1007.79
2019-05-11T16:21:18.134Z,1007.78
2019-05-11T16:22:20.889Z,1007.82
2019-05-11T16:23:17.520Z,1007.88
2019-05-11T16:24:16.808Z,1007.88
2019-05-11T16:25:19.213Z,1007.90
2019-05-11T16:26:17.574Z,1007.87
2019-05-11T16:27:18.302Z,1007.95
2019-05-11T16:28:19.245Z,1007.96
2019-05-11T16:29:18.980Z,1007.93
2019-05-11T16:30:18.400Z,1007.95
2019-05-11T16:31:17.943Z,1007.97
2019-05-11T16:32:16.710Z,1008.06
2019-05-11T16:33:17.969Z,1008.03
2019-05-11T16:34:18.477Z,1008.05
2019-05-11T16:35:17.943Z,1008.06
2019-05-11T16:36:18.014Z,1008.05
2019-05-11T16:37:18.456Z,1008.06
2019-05-11T16:38:18.749Z,1008.08
2019-05-11T16:39:18.629Z,1008.15
2019-05-11T16:40:20.264Z,1008.18
2019-05-11T16:41:17.863Z,1008.20
2019-05-11T16:42:16.596Z,1008.21
2019-05-11T16:43:18.935Z,1008.22
2019-05-11T16:44:18.451Z,1008.24
2019-05-11T16:45:19.068Z,1008.26
2019-05-11T16:46:17.767Z,1008.29
2019-05-11T16:47:18.133Z,1008.24
2019-05-11T16:48:18.465Z,1008.29
2019-05-11T16:49:26.193Z,1008.29
2019-05-11T16:50:38.511Z,1008.33
2019-05-11T16:51:38.877Z,1008.34
2019-05-11T16:52:38.772Z,1008.34
2019-05-11T16:53:39.067Z,1008.34
2019-05-11T16:54:38.830Z,1008.32
2019-05-11T16:55:38.222Z,1008.39
2019-05-11T16:56:38.503Z,1008.38
2019-05-11T16:57:38.343Z,1008.39
2019-05-11T16:58:41.099Z,1008.38
2019-05-11T16:59:39.878Z,1008.41
2019-05-11T17:00:39.346Z,1008.42
2019-05-11T17:01:38.219Z,1008.47
2019-05-11T17:02:38.381Z,1008.54
2019-05-11T17:03:38.547Z,1008.53
2019-05-11T17:04:39.834Z,1008.55
2019-05-11T17:05:38.408Z,1008.57
2019-05-11T17:06:38.665Z,1008.59
2019-05-11T17:07:38.087Z,1008.58
2019-05-11T17:08:38.485Z,1008.63
2019-05-11T17:09:38.065Z,1008.63
2019-05-11T17:10:38.046Z,1008.68
2019-05-11T17:11:38.426Z,1008.70
2019-05-11T17:12:38.626Z,1008.74
2019-05-11T17:13:38.204Z,1008.73
2019-05-11T17:14:38.002Z,1008.78
2019-05-11T17:15:37.998Z,1008.78
2019-05-11T17:16:38.798Z,1008.79
2019-05-11T17:17:37.986Z,1008.78
2019-05-11T17:18:37.982Z,1008.80
2019-05-11T17:19:45.279Z,1008.86
2019-05-11T17:20:59.771Z,1008.83
2019-05-11T17:21:59.746Z,1008.84
2019-05-11T17:22:59.747Z,1008.83
2019-05-11T17:23:59.752Z,1008.90
2019-05-11T17:24:59.727Z,1008.92
2019-05-11T17:25:59.710Z,1008.93
2019-05-11T17:26:59.713Z,1008.97
2019-05-11T17:27:59.682Z,1008.98
2019-05-11T17:28:59.682Z,1009.04
2019-05-11T17:29:59.665Z,1009.01
2019-05-11T17:31:02.813Z,1009.03
2019-05-11T17:31:59.640Z,1009.05
2019-05-11T17:32:59.647Z,1009.07
2019-05-11T17:33:59.621Z,1009.09
2019-05-11T17:34:59.604Z,1009.10
2019-05-11T17:35:59.595Z,1009.13
2019-05-11T17:37:00.156Z,1009.07
2019-05-11T17:37:59.572Z,1009.07
2019-05-11T17:38:59.565Z,1009.10
2019-05-11T17:39:59.548Z,1009.15
2019-05-11T17:40:59.542Z,1009.19
2019-05-11T17:41:59.523Z,1009.21
2019-05-11T17:42:59.519Z,1009.22
2019-05-11T17:43:59.502Z,1009.25
2019-05-11T17:44:59.497Z,1009.29
2019-05-11T17:45:59.482Z,1009.25
2019-05-11T17:46:59.475Z,1009.27
2019-05-11T17:47:59.454Z,1009.32
2019-05-11T17:48:59.451Z,1009.34
2019-05-11T17:50:03.472Z,1009.35
2019-05-11T17:50:59.437Z,1009.37
2019-05-11T17:51:59.415Z,1009.38
2019-05-11T17:52:59.407Z,1009.43
2019-05-11T17:53:59.783Z,1009.49
2019-05-11T17:54:59.421Z,1009.49
2019-05-11T17:55:59.370Z,1009.49
2019-05-11T17:56:59.396Z,1009.51
2019-05-11T17:57:59.347Z,1009.54
2019-05-11T17:58:59.380Z,1009.54
2019-05-11T18:00:02.139Z,1009.58
2019-05-11T18:00:59.312Z,1009.64
2019-05-11T18:01:59.300Z,1009.59
2019-05-11T18:02:59.299Z,1009.61
2019-05-11T18:03:59.280Z,1009.63
2019-05-11T18:04:59.263Z,1009.65
2019-05-11T18:05:59.261Z,1009.60
2019-05-11T18:06:59.253Z,1009.64
2019-05-11T18:07:59.231Z,1009.64
2019-05-11T18:08:59.221Z,1009.63
2019-05-11T18:09:59.216Z,1009.67
2019-05-11T18:11:59.188Z,1009.75
2019-05-11T18:12:59.180Z,1009.70
2019-05-11T18:13:59.165Z,1009.73
2019-05-11T18:14:59.159Z,1009.75
2019-05-11T18:15:59.150Z,1009.76
2019-05-11T18:16:59.151Z,1009.83
2019-05-11T18:17:59.131Z,1009.79
2019-05-11T18:18:59.127Z,1009.83
2019-05-11T18:20:12.602Z,1009.83
2019-05-11T18:21:24.206Z,1009.89
2019-05-11T18:22:24.189Z,1009.85
2019-05-11T18:23:24.189Z,1009.86
2019-05-11T18:24:24.172Z,1009.88
2019-05-11T18:25:24.170Z,1009.90
2019-05-11T18:27:24.134Z,1009.92
2019-05-11T18:28:24.114Z,1009.97
2019-05-11T18:29:24.110Z,1009.95
2019-05-11T18:30:24.117Z,1009.97
2019-05-11T18:31:24.090Z,1010.00
2019-05-11T18:32:24.080Z,1010.06
2019-05-11T18:33:24.065Z,1010.07
2019-05-11T18:34:24.052Z,1010.07
2019-05-11T18:35:24.058Z,1010.08
2019-05-11T18:36:24.033Z,1010.15
2019-05-11T18:37:24.022Z,1010.21
2019-05-11T18:38:24.031Z,1010.17
2019-05-11T18:39:24.003Z,1010.25
2019-05-11T18:40:23.983Z,1010.23
2019-05-11T18:41:23.988Z,1010.27
2019-05-11T18:42:23.982Z,1010.26
2019-05-11T18:44:23.944Z,1010.29
2019-05-11T18:45:23.933Z,1010.34
2019-05-11T18:47:23.910Z,1010.36
2019-05-11T18:48:23.945Z,1010.37
2019-05-11T18:49:23.902Z,1010.41
2019-05-11T18:51:45.546Z,1010.44
2019-05-11T18:52:45.530Z,1010.48
2019-05-11T18:53:45.522Z,1010.50
2019-05-11T19:20:47.036Z,1011.13
